sensor_id;sensor_type;location;lat;lon;timestamp;pressure;altitude;pressure_sealevel;temperature;humidity
44027;BME280;29696;55.698;37.460;2023-04-27T00:01:42;98775.22;;;9.90;72.58
44027;BME280;29696;55.698;37.460;2023-04-27T00:04:09;98776.22;;;9.89;73.29
44027;BME280;29696;55.698;37.460;2023-04-27T00:06:35;98785.56;;;9.83;73.75
44027;BME280;29696;55.698;37.460;2023-04-27T00:09:02;98792.44;;;9.76;73.70
44027;BME280;29696;55.698;37.460;2023-04-27T00:11:29;98789.78;;;9.76;73.91
44027;BME280;29696;55.698;37.460;2023-04-27T00:13:55;98796.94;;;9.83;74.32
44027;BME280;29696;55.698;37.460;2023-04-27T00:16:22;98789.50;;;9.79;73.96
44027;BME280;29696;55.698;37.460;2023-04-27T00:18:48;98795.44;;;9.81;73.87
44027;BME280;29696;55.698;37.460;2023-04-27T00:21:15;98793.25;;;9.76;73.62
44027;BME280;29696;55.698;37.460;2023-04-27T00:23:41;98792.88;;;9.71;74.05
44027;BME280;29696;55.698;37.460;2023-04-27T00:26:08;98797.91;;;9.65;74.14
44027;BME280;29696;55.698;37.460;2023-04-27T00:28:35;98793.22;;;9.58;75.07
44027;BME280;29696;55.698;37.460;2023-04-27T00:31:01;98783.81;;;9.56;75.34
44027;BME280;29696;55.698;37.460;2023-04-27T00:33:29;98793.00;;;9.52;75.81
44027;BME280;29696;55.698;37.460;2023-04-27T00:35:59;98797.97;;;9.55;75.52
44027;BME280;29696;55.698;37.460;2023-04-27T00:38:28;98793.13;;;9.50;75.51
44027;BME280;29696;55.698;37.460;2023-04-27T00:41:05;98786.00;;;9.60;75.23
44027;BME280;29696;55.698;37.460;2023-04-27T00:43:39;98790.44;;;9.60;75.06
44027;BME280;29696;55.698;37.460;2023-04-27T00:46:06;98783.97;;;9.54;74.61
44027;BME280;29696;55.698;37.460;2023-04-27T00:48:34;98778.81;;;9.53;74.81
44027;BME280;29696;55.698;37.460;2023-04-27T00:51:00;98778.44;;;9.48;75.21
44027;BME280;29696;55.698;37.460;2023-04-27T00:53:27;98786.34;;;9.48;75.63
44027;BME280;29696;55.698;37.460;2023-04-27T00:55:54;98792.19;;;9.51;75.35
44027;BME280;29696;55.698;37.460;2023-04-27T00:58:23;98799.41;;;9.49;75.43
44027;BME280;29696;55.698;37.460;2023-04-27T01:00:49;98794.84;;;9.42;75.52
44027;BME280;29696;55.698;37.460;2023-04-27T01:03:16;98798.06;;;9.35;76.12
44027;BME280;29696;55.698;37.460;2023-04-27T01:05:43;98795.19;;;9.29;76.63
44027;BME280;29696;55.698;37.460;2023-04-27T01:08:09;98800.91;;;9.24;76.82
44027;BME280;29696;55.698;37.460;2023-04-27T01:10:36;98802.56;;;9.25;76.71
44027;BME280;29696;55.698;37.460;2023-04-27T01:13:06;98801.47;;;9.28;76.80
44027;BME280;29696;55.698;37.460;2023-04-27T01:15:32;98800.91;;;9.24;76.56
44027;BME280;29696;55.698;37.460;2023-04-27T01:17:59;98794.66;;;9.25;76.83
44027;BME280;29696;55.698;37.460;2023-04-27T01:20:28;98794.66;;;9.25;77.25
44027;BME280;29696;55.698;37.460;2023-04-27T01:22:56;98791.63;;;9.20;77.54
44027;BME280;29696;55.698;37.460;2023-04-27T01:25:23;98782.38;;;9.16;77.31
44027;BME280;29696;55.698;37.460;2023-04-27T01:27:49;98787.22;;;9.11;77.32
44027;BME280;29696;55.698;37.460;2023-04-27T01:30:16;98791.69;;;9.10;77.58
44027;BME280;29696;55.698;37.460;2023-04-27T01:32:42;98783.78;;;9.10;77.52
44027;BME280;29696;55.698;37.460;2023-04-27T01:35:09;98787.09;;;9.12;77.38
44027;BME280;29696;55.698;37.460;2023-04-27T01:37:35;98782.38;;;9.16;77.35
44027;BME280;29696;55.698;37.460;2023-04-27T01:40:02;98786.94;;;9.14;77.47
44027;BME280;29696;55.698;37.460;2023-04-27T01:42:32;98782.25;;;9.08;77.67
44027;BME280;29696;55.698;37.460;2023-04-27T01:44:59;98785.41;;;9.11;77.81
44027;BME280;29696;55.698;37.460;2023-04-27T01:47:26;98780.59;;;9.07;77.53
44027;BME280;29696;55.698;37.460;2023-04-27T01:49:52;98783.53;;;9.04;77.70
44027;BME280;29696;55.698;37.460;2023-04-27T01:52:19;98787.56;;;8.98;77.87
44027;BME280;29696;55.698;37.460;2023-04-27T01:54:45;98790.50;;;8.95;78.33
44027;BME280;29696;55.698;37.460;2023-04-27T01:57:14;98790.78;;;8.92;78.81
44027;BME280;29696;55.698;37.460;2023-04-27T01:59:41;98792.97;;;8.97;78.86
44027;BME280;29696;55.698;37.460;2023-04-27T02:02:07;98797.69;;;8.93;78.78
44027;BME280;29696;55.698;37.460;2023-04-27T02:04:36;98807.53;;;8.91;78.89
44027;BME280;29696;55.698;37.460;2023-04-27T02:07:02;98804.38;;;8.87;79.11
44027;BME280;29696;55.698;37.460;2023-04-27T02:09:29;98809.09;;;8.84;79.46
44027;BME280;29696;55.698;37.460;2023-04-27T02:11:55;98804.13;;;8.81;79.61
44027;BME280;29696;55.698;37.460;2023-04-27T02:14:22;98797.88;;;8.82;80.38
44027;BME280;29696;55.698;37.460;2023-04-27T02:17:08;98809.34;;;8.90;80.58
44027;BME280;29696;55.698;37.460;2023-04-27T02:19:34;98812.25;;;8.97;79.92
44027;BME280;29696;55.698;37.460;2023-04-27T02:22:02;98817.50;;;9.07;79.25
44027;BME280;29696;55.698;37.460;2023-04-27T02:24:29;98815.09;;;9.13;78.96
44027;BME280;29696;55.698;37.460;2023-04-27T02:26:55;98820.50;;;9.22;79.00
44027;BME280;29696;55.698;37.460;2023-04-27T02:29:22;98825.03;;;9.29;78.69
44027;BME280;29696;55.698;37.460;2023-04-27T02:31:48;98820.56;;;9.30;78.50
44027;BME280;29696;55.698;37.460;2023-04-27T02:34:14;98819.75;;;9.29;78.58
44027;BME280;29696;55.698;37.460;2023-04-27T02:36:41;98823.78;;;9.33;78.70
44027;BME280;29696;55.698;37.460;2023-04-27T02:39:08;98824.59;;;9.34;78.43
44027;BME280;29696;55.698;37.460;2023-04-27T02:41:37;98824.97;;;9.39;78.33
44027;BME280;29696;55.698;37.460;2023-04-27T02:44:04;98821.50;;;9.38;78.03
44027;BME280;29696;55.698;37.460;2023-04-27T02:46:30;98819.41;;;9.42;77.75
44027;BME280;29696;55.698;37.460;2023-04-27T02:48:57;98828.13;;;9.52;77.42
44027;BME280;29696;55.698;37.460;2023-04-27T02:51:23;98820.91;;;9.54;76.97
44027;BME280;29696;55.698;37.460;2023-04-27T02:53:52;98839.44;;;9.63;76.32
44027;BME280;29696;55.698;37.460;2023-04-27T02:56:18;98836.94;;;9.61;76.17
44027;BME280;29696;55.698;37.460;2023-04-27T02:58:45;98850.38;;;9.68;76.17
44027;BME280;29696;55.698;37.460;2023-04-27T03:01:14;98857.09;;;9.80;76.35
44027;BME280;29696;55.698;37.460;2023-04-27T03:03:45;98845.53;;;9.91;75.81
44027;BME280;29696;55.698;37.460;2023-04-27T03:06:13;98855.63;;;10.13;74.67
44027;BME280;29696;55.698;37.460;2023-04-27T03:08:40;98851.56;;;10.55;73.46
44027;BME280;29696;55.698;37.460;2023-04-27T03:11:07;98848.06;;;11.58;70.01
44027;BME280;29696;55.698;37.460;2023-04-27T03:13:36;98850.75;;;12.58;65.51
44027;BME280;29696;55.698;37.460;2023-04-27T03:16:08;98862.03;;;13.48;62.01
44027;BME280;29696;55.698;37.460;2023-04-27T03:18:37;98857.84;;;14.25;60.07
44027;BME280;29696;55.698;37.460;2023-04-27T03:21:08;98866.25;;;14.97;57.56
44027;BME280;29696;55.698;37.460;2023-04-27T03:23:36;98868.38;;;15.61;56.08
44027;BME280;29696;55.698;37.460;2023-04-27T03:26:06;98874.94;;;16.25;54.30
44027;BME280;29696;55.698;37.460;2023-04-27T03:28:34;98865.03;;;16.83;51.63
44027;BME280;29696;55.698;37.460;2023-04-27T03:31:08;98867.41;;;17.62;49.75
44027;BME280;29696;55.698;37.460;2023-04-27T03:33:35;98865.78;;;18.22;48.01
44027;BME280;29696;55.698;37.460;2023-04-27T03:36:03;98871.81;;;18.71;46.86
44027;BME280;29696;55.698;37.460;2023-04-27T03:38:31;98869.94;;;18.45;46.70
44027;BME280;29696;55.698;37.460;2023-04-27T03:40:58;98860.88;;;19.26;45.13
44027;BME280;29696;55.698;37.460;2023-04-27T03:43:26;98874.69;;;20.08;43.81
44027;BME280;29696;55.698;37.460;2023-04-27T03:45:52;98870.94;;;20.79;42.49
44027;BME280;29696;55.698;37.460;2023-04-27T03:48:19;98891.09;;;21.38;40.69
44027;BME280;29696;55.698;37.460;2023-04-27T03:50:47;98886.41;;;21.88;39.47
44027;BME280;29696;55.698;37.460;2023-04-27T03:53:15;98877.81;;;22.47;38.05
44027;BME280;29696;55.698;37.460;2023-04-27T03:55:43;98877.19;;;22.87;37.31
44027;BME280;29696;55.698;37.460;2023-04-27T03:58:11;98883.19;;;23.36;35.95
44027;BME280;29696;55.698;37.460;2023-04-27T04:00:48;98886.47;;;24.13;35.14
44027;BME280;29696;55.698;37.460;2023-04-27T04:03:14;98885.44;;;24.43;34.09
44027;BME280;29696;55.698;37.460;2023-04-27T04:05:41;98890.72;;;25.00;32.97
44027;BME280;29696;55.698;37.460;2023-04-27T04:08:08;98895.03;;;25.52;32.55
44027;BME280;29696;55.698;37.460;2023-04-27T04:10:34;98890.53;;;26.02;31.16
44027;BME280;29696;55.698;37.460;2023-04-27T04:13:01;98890.94;;;26.37;30.65
44027;BME280;29696;55.698;37.460;2023-04-27T04:15:27;98894.97;;;26.89;29.52
44027;BME280;29696;55.698;37.460;2023-04-27T04:17:54;98889.63;;;26.99;28.63
44027;BME280;29696;55.698;37.460;2023-04-27T04:20:20;98894.34;;;27.14;28.84
44027;BME280;29696;55.698;37.460;2023-04-27T04:22:47;98899.56;;;27.63;28.35
44027;BME280;29696;55.698;37.460;2023-04-27T04:25:13;98897.09;;;28.14;27.93
44027;BME280;29696;55.698;37.460;2023-04-27T04:27:41;98908.63;;;28.57;26.85
44027;BME280;29696;55.698;37.460;2023-04-27T04:30:08;98904.59;;;28.75;26.13
44027;BME280;29696;55.698;37.460;2023-04-27T04:32:36;98902.66;;;28.55;25.98
44027;BME280;29696;55.698;37.460;2023-04-27T04:35:06;98901.28;;;28.68;25.63
44027;BME280;29696;55.698;37.460;2023-04-27T04:37:34;98903.78;;;29.16;25.37
44027;BME280;29696;55.698;37.460;2023-04-27T04:40:06;98912.91;;;29.81;24.97
44027;BME280;29696;55.698;37.460;2023-04-27T04:42:36;98907.38;;;30.07;24.38
44027;BME280;29696;55.698;37.460;2023-04-27T04:45:06;98903.28;;;30.59;23.76
44027;BME280;29696;55.698;37.460;2023-04-27T04:47:34;98899.44;;;30.99;22.97
44027;BME280;29696;55.698;37.460;2023-04-27T04:50:01;98903.16;;;31.43;22.44
44027;BME280;29696;55.698;37.460;2023-04-27T04:52:33;98901.94;;;31.78;21.69
44027;BME280;29696;55.698;37.460;2023-04-27T04:55:00;98914.88;;;32.15;21.60
44027;BME280;29696;55.698;37.460;2023-04-27T04:57:26;98902.47;;;32.47;20.70
44027;BME280;29696;55.698;37.460;2023-04-27T04:59:53;98903.63;;;32.41;21.23
44027;BME280;29696;55.698;37.460;2023-04-27T05:02:19;98903.69;;;32.73;20.82
44027;BME280;29696;55.698;37.460;2023-04-27T05:04:45;98909.38;;;32.77;19.95
44027;BME280;29696;55.698;37.460;2023-04-27T05:07:12;98909.91;;;32.79;20.29
44027;BME280;29696;55.698;37.460;2023-04-27T05:09:39;98908.56;;;33.42;19.57
44027;BME280;29696;55.698;37.460;2023-04-27T05:12:05;98925.25;;;34.15;19.09
44027;BME280;29696;55.698;37.460;2023-04-27T05:14:32;98914.41;;;34.60;19.35
44027;BME280;29696;55.698;37.460;2023-04-27T05:16:58;98922.94;;;34.58;18.39
44027;BME280;29696;55.698;37.460;2023-04-27T05:19:27;98925.16;;;35.15;18.09
44027;BME280;29696;55.698;37.460;2023-04-27T05:21:54;98916.94;;;34.20;18.22
44027;BME280;29696;55.698;37.460;2023-04-27T05:24:20;98919.53;;;34.75;18.33
44027;BME280;29696;55.698;37.460;2023-04-27T05:26:47;98914.03;;;35.20;17.69
44027;BME280;29696;55.698;37.460;2023-04-27T05:29:13;98916.84;;;35.29;17.11
44027;BME280;29696;55.698;37.460;2023-04-27T05:31:39;98919.50;;;34.52;17.62
44027;BME280;29696;55.698;37.460;2023-04-27T05:34:06;98922.78;;;34.99;17.65
44027;BME280;29696;55.698;37.460;2023-04-27T05:36:35;98928.09;;;35.50;17.19
44027;BME280;29696;55.698;37.460;2023-04-27T05:39:02;98923.84;;;35.75;16.58
44027;BME280;29696;55.698;37.460;2023-04-27T05:41:29;98924.66;;;36.15;16.51
44027;BME280;29696;55.698;37.460;2023-04-27T05:43:56;98921.66;;;35.94;16.11
44027;BME280;29696;55.698;37.460;2023-04-27T05:46:22;98921.16;;;35.92;16.82
44027;BME280;29696;55.698;37.460;2023-04-27T05:48:48;98918.41;;;36.75;16.35
44027;BME280;29696;55.698;37.460;2023-04-27T05:51:15;98908.28;;;37.32;15.79
44027;BME280;29696;55.698;37.460;2023-04-27T05:53:41;98914.75;;;37.27;15.46
44027;BME280;29696;55.698;37.460;2023-04-27T05:56:08;98917.88;;;37.73;14.98
44027;BME280;29696;55.698;37.460;2023-04-27T05:58:36;98923.81;;;38.43;14.59
44027;BME280;29696;55.698;37.460;2023-04-27T06:01:03;98920.78;;;38.98;14.08
44027;BME280;29696;55.698;37.460;2023-04-27T06:03:29;98919.16;;;39.43;14.16
44027;BME280;29696;55.698;37.460;2023-04-27T06:05:57;98918.22;;;39.39;14.45
44027;BME280;29696;55.698;37.460;2023-04-27T06:08:24;98923.09;;;39.66;13.79
44027;BME280;29696;55.698;37.460;2023-04-27T06:10:51;98925.56;;;39.80;13.52
44027;BME280;29696;55.698;37.460;2023-04-27T06:13:17;98919.41;;;40.24;13.79
44027;BME280;29696;55.698;37.460;2023-04-27T06:15:44;98910.25;;;40.48;13.57
44027;BME280;29696;55.698;37.460;2023-04-27T06:18:11;98924.13;;;41.04;12.65
44027;BME280;29696;55.698;37.460;2023-04-27T06:20:38;98915.78;;;41.32;12.09
44027;BME280;29696;55.698;37.460;2023-04-27T06:23:04;98921.81;;;41.50;12.50
44027;BME280;29696;55.698;37.460;2023-04-27T06:25:31;98919.38;;;41.64;12.22
44027;BME280;29696;55.698;37.460;2023-04-27T06:27:57;98924.81;;;41.45;12.05
44027;BME280;29696;55.698;37.460;2023-04-27T06:30:24;98917.69;;;41.60;12.39
44027;BME280;29696;55.698;37.460;2023-04-27T06:32:50;98914.00;;;41.40;12.01
44027;BME280;29696;55.698;37.460;2023-04-27T06:35:17;98923.50;;;41.70;12.20
44027;BME280;29696;55.698;37.460;2023-04-27T06:37:44;98914.25;;;39.98;12.51
44027;BME280;29696;55.698;37.460;2023-04-27T06:40:10;98923.56;;;40.30;12.67
44027;BME280;29696;55.698;37.460;2023-04-27T06:42:37;98921.16;;;39.21;12.94
44027;BME280;29696;55.698;37.460;2023-04-27T06:45:03;98914.13;;;39.12;12.80
44027;BME280;29696;55.698;37.460;2023-04-27T06:47:32;98917.53;;;38.96;12.75
44027;BME280;29696;55.698;37.460;2023-04-27T06:49:58;98913.31;;;39.11;12.44
44027;BME280;29696;55.698;37.460;2023-04-27T06:52:25;98913.88;;;39.50;12.30
44027;BME280;29696;55.698;37.460;2023-04-27T06:54:53;98924.97;;;39.75;11.99
44027;BME280;29696;55.698;37.460;2023-04-27T06:57:19;98922.75;;;39.68;11.87
44027;BME280;29696;55.698;37.460;2023-04-27T06:59:45;98925.53;;;39.10;12.35
44027;BME280;29696;55.698;37.460;2023-04-27T07:02:12;98922.59;;;39.40;12.83
44027;BME280;29696;55.698;37.460;2023-04-27T07:04:38;98919.28;;;39.46;12.20
44027;BME280;29696;55.698;37.460;2023-04-27T07:07:05;98924.84;;;39.96;12.44
44027;BME280;29696;55.698;37.460;2023-04-27T07:09:31;98919.78;;;40.10;11.89
44027;BME280;29696;55.698;37.460;2023-04-27T07:11:57;98918.16;;;39.97;11.97
44027;BME280;29696;55.698;37.460;2023-04-27T07:14:26;98917.13;;;40.01;12.41
44027;BME280;29696;55.698;37.460;2023-04-27T07:16:52;98922.75;;;39.43;11.85
44027;BME280;29696;55.698;37.460;2023-04-27T07:19:19;98916.53;;;39.46;12.34
44027;BME280;29696;55.698;37.460;2023-04-27T07:21:45;98921.47;;;38.74;12.76
44027;BME280;29696;55.698;37.460;2023-04-27T07:24:11;98921.81;;;37.92;13.51
44027;BME280;29696;55.698;37.460;2023-04-27T07:26:38;98921.41;;;37.82;14.19
44027;BME280;29696;55.698;37.460;2023-04-27T07:29:04;98917.63;;;38.88;13.67
44027;BME280;29696;55.698;37.460;2023-04-27T07:31:31;98926.31;;;39.56;13.51
44027;BME280;29696;55.698;37.460;2023-04-27T07:33:58;98925.50;;;39.31;12.44
44027;BME280;29696;55.698;37.460;2023-04-27T07:36:25;98929.75;;;38.03;13.45
44027;BME280;29696;55.698;37.460;2023-04-27T07:38:52;98932.97;;;38.05;14.05
44027;BME280;29696;55.698;37.460;2023-04-27T07:41:19;98929.00;;;38.44;14.42
44027;BME280;29696;55.698;37.460;2023-04-27T07:43:45;98928.53;;;39.17;13.53
44027;BME280;29696;55.698;37.460;2023-04-27T07:46:13;98934.06;;;39.75;13.27
44027;BME280;29696;55.698;37.460;2023-04-27T07:48:39;98929.78;;;40.27;13.18
44027;BME280;29696;55.698;37.460;2023-04-27T07:51:05;98929.41;;;40.41;12.89
44027;BME280;29696;55.698;37.460;2023-04-27T07:53:34;98943.66;;;40.95;12.65
44027;BME280;29696;55.698;37.460;2023-04-27T07:56:00;98945.97;;;41.05;12.43
44027;BME280;29696;55.698;37.460;2023-04-27T07:58:27;98942.44;;;39.66;12.83
44027;BME280;29696;55.698;37.460;2023-04-27T08:00:53;98936.81;;;39.17;13.27
44027;BME280;29696;55.698;37.460;2023-04-27T08:03:19;98930.88;;;38.94;14.07
44027;BME280;29696;55.698;37.460;2023-04-27T08:05:47;98940.28;;;38.01;14.37
44027;BME280;29696;55.698;37.460;2023-04-27T08:08:14;98934.88;;;37.75;15.03
44027;BME280;29696;55.698;37.460;2023-04-27T08:10:40;98928.28;;;37.67;14.77
44027;BME280;29696;55.698;37.460;2023-04-27T08:13:08;98925.59;;;37.41;15.02
44027;BME280;29696;55.698;37.460;2023-04-27T08:15:35;98928.63;;;37.01;16.02
44027;BME280;29696;55.698;37.460;2023-04-27T08:18:02;98928.56;;;36.49;15.84
44027;BME280;29696;55.698;37.460;2023-04-27T08:20:28;98932.56;;;36.08;17.06
44027;BME280;29696;55.698;37.460;2023-04-27T08:22:55;98921.59;;;35.77;17.42
44027;BME280;29696;55.698;37.460;2023-04-27T08:25:21;98932.69;;;34.14;17.99
44027;BME280;29696;55.698;37.460;2023-04-27T08:27:48;98927.50;;;32.73;19.83
44027;BME280;29696;55.698;37.460;2023-04-27T08:30:14;98927.34;;;31.78;21.28
44027;BME280;29696;55.698;37.460;2023-04-27T08:32:41;98924.09;;;30.44;22.27
44027;BME280;29696;55.698;37.460;2023-04-27T08:35:08;98932.59;;;29.47;22.07
44027;BME280;29696;55.698;37.460;2023-04-27T08:37:34;98929.19;;;28.33;23.78
44027;BME280;29696;55.698;37.460;2023-04-27T08:40:03;98928.56;;;28.00;24.65
44027;BME280;29696;55.698;37.460;2023-04-27T08:42:31;98928.31;;;27.17;25.75
44027;BME280;29696;55.698;37.460;2023-04-27T08:44:58;98931.22;;;26.51;26.72
44027;BME280;29696;55.698;37.460;2023-04-27T08:47:24;98926.97;;;26.38;27.49
44027;BME280;29696;55.698;37.460;2023-04-27T08:49:51;98927.56;;;26.18;27.85
44027;BME280;29696;55.698;37.460;2023-04-27T08:52:17;98922.75;;;25.42;27.87
44027;BME280;29696;55.698;37.460;2023-04-27T08:54:44;98925.53;;;24.80;30.47
44027;BME280;29696;55.698;37.460;2023-04-27T08:57:14;98934.19;;;24.65;30.83
44027;BME280;29696;55.698;37.460;2023-04-27T08:59:42;98929.22;;;24.45;31.30
44027;BME280;29696;55.698;37.460;2023-04-27T09:02:18;98933.75;;;24.56;30.50
44027;BME280;29696;55.698;37.460;2023-04-27T09:04:45;98922.84;;;24.11;32.24
44027;BME280;29696;55.698;37.460;2023-04-27T09:07:13;98933.59;;;23.94;32.03
44027;BME280;29696;55.698;37.460;2023-04-27T09:09:40;98929.84;;;23.72;32.68
44027;BME280;29696;55.698;37.460;2023-04-27T09:12:20;98939.59;;;23.73;32.43
44027;BME280;29696;55.698;37.460;2023-04-27T09:15:16;98933.13;;;23.27;33.07
44027;BME280;29696;55.698;37.460;2023-04-27T09:17:43;98927.94;;;22.29;34.27
44027;BME280;29696;55.698;37.460;2023-04-27T09:20:09;98926.75;;;22.25;34.88
44027;BME280;29696;55.698;37.460;2023-04-27T09:22:46;98928.56;;;22.43;34.14
44027;BME280;29696;55.698;37.460;2023-04-27T09:25:29;98929.72;;;22.66;33.43
44027;BME280;29696;55.698;37.460;2023-04-27T09:27:58;98928.25;;;22.21;32.53
44027;BME280;29696;55.698;37.460;2023-04-27T09:30:26;98924.38;;;22.17;33.54
44027;BME280;29696;55.698;37.460;2023-04-27T09:33:13;98929.13;;;22.64;32.46
44027;BME280;29696;55.698;37.460;2023-04-27T09:35:40;98925.84;;;22.62;31.50
44027;BME280;29696;55.698;37.460;2023-04-27T09:38:07;98917.53;;;22.63;32.18
44027;BME280;29696;55.698;37.460;2023-04-27T09:40:34;98920.34;;;22.68;32.85
44027;BME280;29696;55.698;37.460;2023-04-27T09:43:01;98917.06;;;22.66;33.38
44027;BME280;29696;55.698;37.460;2023-04-27T09:45:28;98925.91;;;22.55;35.01
44027;BME280;29696;55.698;37.460;2023-04-27T09:47:55;98919.47;;;22.07;34.17
44027;BME280;29696;55.698;37.460;2023-04-27T09:50:21;98914.81;;;21.84;35.34
44027;BME280;29696;55.698;37.460;2023-04-27T09:52:48;98929.53;;;21.82;35.22
44027;BME280;29696;55.698;37.460;2023-04-27T09:55:16;98934.28;;;21.80;35.62
44027;BME280;29696;55.698;37.460;2023-04-27T10:01:42;98935.59;;;21.96;35.26
44027;BME280;29696;55.698;37.460;2023-04-27T10:07:31;98936.88;;;21.50;35.71
44027;BME280;29696;55.698;37.460;2023-04-27T10:10:01;98932.41;;;21.43;36.19
44027;BME280;29696;55.698;37.460;2023-04-27T10:12:34;98935.34;;;21.35;35.76
44027;BME280;29696;55.698;37.460;2023-04-27T10:15:16;98940.03;;;21.47;35.78
44027;BME280;29696;55.698;37.460;2023-04-27T10:17:49;98926.97;;;21.25;35.93
44027;BME280;29696;55.698;37.460;2023-04-27T10:20:28;98932.84;;;21.15;36.61
44027;BME280;29696;55.698;37.460;2023-04-27T10:22:55;98928.88;;;20.93;36.64
44027;BME280;29696;55.698;37.460;2023-04-27T10:28:15;98934.09;;;21.13;36.23
44027;BME280;29696;55.698;37.460;2023-04-27T10:30:44;98923.44;;;21.00;35.84
44027;BME280;29696;55.698;37.460;2023-04-27T10:33:15;98928.38;;;21.03;36.47
44027;BME280;29696;55.698;37.460;2023-04-27T10:35:52;98935.41;;;21.04;35.50
44027;BME280;29696;55.698;37.460;2023-04-27T10:38:25;98931.13;;;21.21;35.69
44027;BME280;29696;55.698;37.460;2023-04-27T10:41:15;98937.06;;;21.73;35.67
44027;BME280;29696;55.698;37.460;2023-04-27T10:43:41;98932.91;;;21.96;34.97
44027;BME280;29696;55.698;37.460;2023-04-27T10:46:14;98935.31;;;22.16;35.87
44027;BME280;29696;55.698;37.460;2023-04-27T10:48:42;98942.34;;;21.98;36.05
44027;BME280;29696;55.698;37.460;2023-04-27T10:51:14;98940.97;;;21.96;36.26
44027;BME280;29696;55.698;37.460;2023-04-27T10:53:40;98929.81;;;21.74;36.37
44027;BME280;29696;55.698;37.460;2023-04-27T10:56:07;98940.19;;;21.70;36.76
44027;BME280;29696;55.698;37.460;2023-04-27T10:58:34;98947.53;;;21.63;37.43
44027;BME280;29696;55.698;37.460;2023-04-27T11:01:01;98942.78;;;21.40;35.70
44027;BME280;29696;55.698;37.460;2023-04-27T11:03:27;98945.28;;;21.10;35.78
44027;BME280;29696;55.698;37.460;2023-04-27T11:06:04;98951.09;;;21.07;36.84
44027;BME280;29696;55.698;37.460;2023-04-27T11:08:31;98943.44;;;20.79;37.23
44027;BME280;29696;55.698;37.460;2023-04-27T11:10:59;98946.22;;;20.65;37.59
44027;BME280;29696;55.698;37.460;2023-04-27T11:13:26;98959.28;;;20.48;37.95
44027;BME280;29696;55.698;37.460;2023-04-27T11:15:57;98965.16;;;20.32;38.50
44027;BME280;29696;55.698;37.460;2023-04-27T11:18:28;98961.50;;;20.13;39.36
44027;BME280;29696;55.698;37.460;2023-04-27T11:21:09;98959.81;;;20.19;40.18
44027;BME280;29696;55.698;37.460;2023-04-27T11:23:36;98956.44;;;19.85;40.74
44027;BME280;29696;55.698;37.460;2023-04-27T11:26:18;98963.34;;;20.13;40.66
44027;BME280;29696;55.698;37.460;2023-04-27T11:29:06;98962.94;;;20.22;40.82
44027;BME280;29696;55.698;37.460;2023-04-27T11:31:58;98958.97;;;20.32;40.27
44027;BME280;29696;55.698;37.460;2023-04-27T11:34:25;98952.66;;;20.06;40.14
44027;BME280;29696;55.698;37.460;2023-04-27T11:36:58;98959.19;;;20.23;39.73
44027;BME280;29696;55.698;37.460;2023-04-27T11:39:27;98946.63;;;20.17;38.86
44027;BME280;29696;55.698;37.460;2023-04-27T11:41:54;98959.34;;;20.35;39.59
44027;BME280;29696;55.698;37.460;2023-04-27T11:44:25;98952.00;;;20.62;38.56
44027;BME280;29696;55.698;37.460;2023-04-27T11:46:52;98941.91;;;20.58;37.72
44027;BME280;29696;55.698;37.460;2023-04-27T11:49:19;98940.28;;;20.50;37.75
44027;BME280;29696;55.698;37.460;2023-04-27T11:51:45;98940.75;;;20.40;37.80
44027;BME280;29696;55.698;37.460;2023-04-27T11:54:13;98947.81;;;20.28;38.28
44027;BME280;29696;55.698;37.460;2023-04-27T11:56:41;98944.09;;;20.29;38.58
44027;BME280;29696;55.698;37.460;2023-04-27T11:59:21;98934.97;;;20.43;38.20
44027;BME280;29696;55.698;37.460;2023-04-27T12:01:52;98944.97;;;20.23;38.46
44027;BME280;29696;55.698;37.460;2023-04-27T12:04:19;98942.16;;;20.04;38.44
44027;BME280;29696;55.698;37.460;2023-04-27T12:06:45;98934.53;;;19.95;38.81
44027;BME280;29696;55.698;37.460;2023-04-27T12:09:12;98940.88;;;20.07;39.24
44027;BME280;29696;55.698;37.460;2023-04-27T12:11:38;98933.25;;;20.04;38.57
44027;BME280;29696;55.698;37.460;2023-04-27T12:14:04;98920.13;;;19.96;38.75
44027;BME280;29696;55.698;37.460;2023-04-27T12:16:32;98926.69;;;20.00;39.20
44027;BME280;29696;55.698;37.460;2023-04-27T12:18:59;98924.81;;;20.00;39.20
44027;BME280;29696;55.698;37.460;2023-04-27T12:21:25;98919.84;;;20.04;39.67
44027;BME280;29696;55.698;37.460;2023-04-27T12:23:51;98921.47;;;20.12;39.14
44027;BME280;29696;55.698;37.460;2023-04-27T12:26:18;98918.38;;;20.15;39.41
44027;BME280;29696;55.698;37.460;2023-04-27T12:28:45;98923.53;;;20.16;38.38
44027;BME280;29696;55.698;37.460;2023-04-27T12:31:15;98930.50;;;20.24;38.86
44027;BME280;29696;55.698;37.460;2023-04-27T12:33:42;98917.88;;;20.31;38.70
44027;BME280;29696;55.698;37.460;2023-04-27T12:36:08;98909.41;;;20.34;38.29
44027;BME280;29696;55.698;37.460;2023-04-27T12:38:34;98908.19;;;20.30;38.08
44027;BME280;29696;55.698;37.460;2023-04-27T12:41:01;98910.09;;;20.23;37.54
44027;BME280;29696;55.698;37.460;2023-04-27T12:43:27;98902.47;;;20.20;37.73
44027;BME280;29696;55.698;37.460;2023-04-27T12:45:54;98906.59;;;20.16;37.77
44027;BME280;29696;55.698;37.460;2023-04-27T12:48:21;98901.03;;;20.17;37.60
44027;BME280;29696;55.698;37.460;2023-04-27T12:50:48;98908.44;;;20.22;37.80
44027;BME280;29696;55.698;37.460;2023-04-27T12:53:15;98910.13;;;20.16;37.70
44027;BME280;29696;55.698;37.460;2023-04-27T12:55:41;98903.75;;;20.11;37.82
44027;BME280;29696;55.698;37.460;2023-04-27T12:58:08;98898.25;;;19.99;36.98
44027;BME280;29696;55.698;37.460;2023-04-27T13:00:34;98901.53;;;19.94;37.22
44027;BME280;29696;55.698;37.460;2023-04-27T13:03:01;98905.84;;;20.02;37.86
44027;BME280;29696;55.698;37.460;2023-04-27T13:05:27;98905.19;;;20.06;36.82
44027;BME280;29696;55.698;37.460;2023-04-27T13:07:54;98900.66;;;20.07;36.74